createdAt,value
2023-04-06T00:02:20.327Z,44.59
2023-04-06T00:07:22.540Z,44.69
2023-04-06T00:12:24.701Z,44.56
2023-04-06T00:17:26.913Z,44.86
2023-04-06T00:22:29.192Z,44.70
2023-04-06T00:27:31.813Z,44.55
2023-04-06T00:32:34.087Z,44.54
2023-04-06T00:37:36.378Z,44.61
2023-04-06T00:42:38.944Z,44.17
2023-04-06T00:47:41.421Z,44.15
2023-04-06T00:52:43.773Z,44.23
2023-04-06T00:57:46.150Z,44.86
2023-04-06T01:02:49.453Z,44.51
2023-04-06T01:07:51.659Z,44.34
2023-04-06T01:12:53.864Z,44.63
2023-04-06T01:17:56.091Z,45.45
2023-04-06T01:22:58.269Z,46.43
2023-04-06T01:28:00.470Z,47.23
2023-04-06T01:33:02.795Z,47.15
2023-04-06T01:38:05.065Z,47.12
2023-04-06T01:43:07.909Z,47.76
2023-04-06T01:48:10.065Z,48.56
2023-04-06T01:53:12.244Z,49.20
2023-04-06T01:58:15.057Z,50.07
2023-04-06T02:03:17.277Z,49.82
2023-04-06T02:08:19.544Z,50.35
2023-04-06T02:13:21.734Z,50.53
2023-04-06T02:18:24.038Z,50.17
2023-04-06T02:23:26.473Z,50.50
2023-04-06T02:28:28.698Z,50.62
2023-04-06T02:33:31.107Z,50.00
2023-04-06T02:38:33.348Z,49.98
2023-04-06T02:43:36.331Z,49.50
2023-04-06T02:48:38.725Z,49.09
2023-04-06T02:53:41.147Z,49.24
2023-04-06T02:58:43.360Z,49.46
2023-04-06T03:03:46.089Z,50.02
2023-04-06T03:08:48.700Z,49.93
2023-04-06T03:13:51.096Z,49.62
2023-04-06T03:18:53.281Z,50.74
2023-04-06T03:23:55.412Z,50.32
2023-04-06T03:28:57.601Z,50.48
2023-04-06T03:34:00.672Z,50.58
2023-04-06T03:39:02.886Z,50.81
2023-04-06T03:44:05.183Z,51.06
2023-04-06T03:49:07.975Z,51.29
2023-04-06T03:54:10.639Z,51.92
2023-04-06T03:59:12.961Z,52.26
2023-04-06T04:04:15.238Z,52.38
2023-04-06T04:09:17.636Z,52.98
2023-04-06T04:14:19.785Z,52.35
2023-04-06T04:19:22.325Z,52.58
2023-04-06T04:24:24.513Z,52.67
2023-04-06T04:29:27.072Z,52.34
2023-04-06T04:34:29.705Z,52.50
2023-04-06T04:39:32.404Z,51.70
2023-04-06T04:44:34.541Z,51.21
2023-04-06T04:49:36.863Z,51.95
2023-04-06T04:54:39.448Z,51.15
2023-04-06T04:59:41.745Z,51.20
2023-04-06T05:04:43.933Z,50.51
2023-04-06T05:09:46.416Z,50.59
2023-04-06T05:14:48.651Z,51.05
2023-04-06T05:19:51.080Z,50.50
2023-04-06T05:24:53.353Z,50.05
2023-04-06T05:29:57.774Z,50.11
2023-04-06T05:35:00.506Z,50.11
2023-04-06T05:40:02.780Z,49.84
2023-04-06T05:45:05.825Z,49.23
2023-04-06T05:50:09.423Z,48.99
2023-04-06T05:55:12.791Z,48.66
2023-04-06T06:00:16.179Z,48.27
2023-04-06T06:05:18.488Z,47.85
2023-04-06T06:10:20.747Z,47.45
2023-04-06T06:15:22.901Z,46.88
2023-04-06T06:20:25.124Z,46.88
2023-04-06T06:25:27.523Z,46.24
2023-04-06T06:30:29.719Z,45.57
2023-04-06T06:35:31.939Z,45.16
2023-04-06T06:40:35.259Z,45.10
2023-04-06T06:45:39.111Z,45.23
2023-04-06T06:50:41.353Z,45.12
2023-04-06T06:55:45.499Z,43.80
2023-04-06T07:00:48.078Z,43.13
2023-04-06T07:05:54.577Z,42.52
2023-04-06T07:10:59.623Z,41.99
2023-04-06T07:16:01.917Z,42.48
2023-04-06T07:21:04.312Z,42.79
2023-04-06T07:26:06.445Z,43.20
2023-04-06T07:31:08.546Z,42.92
2023-04-06T07:36:10.772Z,42.86
2023-04-06T07:41:13.105Z,42.29
2023-04-06T07:46:15.300Z,42.42
2023-04-06T07:51:18.852Z,43.01
2023-04-06T07:56:22.221Z,42.52
2023-04-06T08:01:24.483Z,42.09
2023-04-06T08:06:27.587Z,42.75
2023-04-06T08:11:29.749Z,42.88
2023-04-06T08:16:32.013Z,42.71
2023-04-06T08:21:34.884Z,42.94
2023-04-06T08:26:37.033Z,42.73
2023-04-06T08:31:39.226Z,42.27
2023-04-06T08:36:41.743Z,42.01
2023-04-06T08:41:45.023Z,41.70
2023-04-06T08:46:47.804Z,41.22
2023-04-06T08:51:51.507Z,41.29
2023-04-06T08:56:54.505Z,41.91
2023-04-06T09:01:57.262Z,41.71
2023-04-06T09:06:59.471Z,41.95
2023-04-06T09:12:07.064Z,42.28
2023-04-06T09:17:09.693Z,42.25
2023-04-06T09:22:11.906Z,42.70
2023-04-06T09:27:15.815Z,42.93
2023-04-06T09:32:18.480Z,42.67
2023-04-06T09:37:20.836Z,42.37
2023-04-06T09:42:27.036Z,41.89
2023-04-06T09:47:31.766Z,41.37
2023-04-06T09:52:41.010Z,41.68
2023-04-06T09:57:49.071Z,42.45
2023-04-06T10:03:02.542Z,42.58
2023-04-06T10:08:10.267Z,42.15
2023-04-06T10:13:13.315Z,42.22
2023-04-06T10:18:16.856Z,42.07
2023-04-06T10:23:24.836Z,42.83
2023-04-06T10:28:32.307Z,42.64
2023-04-06T10:33:35.081Z,42.76
2023-04-06T10:38:41.749Z,42.92
2023-04-06T10:43:44.534Z,42.65
2023-04-06T10:48:48.078Z,42.46
2023-04-06T10:53:50.911Z,41.89
2023-04-06T10:58:55.181Z,41.38
2023-04-06T11:04:01.852Z,40.89
2023-04-06T11:09:04.183Z,40.71
2023-04-06T11:14:06.358Z,39.92
2023-04-06T11:19:09.170Z,39.18
2023-04-06T11:24:14.107Z,38.44
2023-04-06T11:29:22.340Z,37.76
2023-04-06T11:34:26.073Z,38.44
2023-04-06T11:39:29.708Z,38.63
2023-04-06T11:44:47.238Z,38.40
2023-04-06T11:49:49.635Z,37.94
2023-04-06T11:54:54.001Z,37.31
2023-04-06T11:59:56.891Z,36.77
2023-04-06T12:04:59.224Z,36.40
2023-04-06T12:10:03.978Z,35.66
2023-04-06T12:15:06.805Z,34.73
2023-04-06T12:20:17.985Z,34.21
2023-04-06T12:25:27.843Z,33.96
2023-04-06T12:30:30.199Z,34.24
2023-04-06T12:35:35.938Z,33.92
2023-04-06T12:40:41.715Z,33.98
2023-04-06T12:45:43.918Z,33.65
2023-04-06T12:50:46.161Z,33.73
2023-04-06T12:55:48.315Z,34.25
2023-04-06T13:00:51.593Z,34.21
2023-04-06T13:05:54.005Z,33.92
2023-04-06T13:10:56.481Z,33.91
2023-04-06T13:16:03.923Z,33.65
2023-04-06T13:21:07.667Z,33.28
2023-04-06T13:26:09.845Z,32.70
2023-04-06T13:31:12.183Z,32.34
2023-04-06T13:36:16.690Z,32.62
2023-04-06T13:41:24.385Z,32.54
2023-04-06T13:46:27.168Z,32.67
2023-04-06T13:51:29.686Z,32.91
2023-04-06T13:56:31.783Z,33.38
2023-04-06T14:01:33.921Z,33.80
2023-04-06T14:06:36.497Z,34.03
2023-04-06T14:11:39.437Z,34.99
2023-04-06T14:16:45.261Z,35.59
2023-04-06T14:21:47.884Z,35.73
2023-04-06T14:26:50.109Z,36.06
2023-04-06T14:31:52.301Z,36.17
2023-04-06T14:36:54.773Z,36.60
2023-04-06T14:41:57.503Z,36.76
2023-04-06T14:46:59.837Z,37.00
2023-04-06T14:52:02.060Z,38.47
2023-04-06T14:57:04.760Z,38.06
2023-04-06T15:02:06.983Z,38.39
2023-04-06T15:07:09.140Z,38.56
2023-04-06T15:12:11.748Z,39.09
2023-04-06T15:17:14.108Z,39.15
2023-04-06T15:22:16.658Z,39.45
2023-04-06T15:27:18.826Z,39.64
2023-04-06T15:32:21.496Z,39.28
2023-04-06T15:37:23.937Z,44.28
2023-04-06T15:42:26.283Z,45.69
2023-04-06T15:47:28.440Z,50.06
2023-04-06T15:52:30.633Z,49.83
2023-04-06T15:57:33.186Z,50.65
2023-04-06T16:02:35.895Z,51.47
2023-04-06T16:07:38.705Z,52.39
2023-04-06T16:12:42.730Z,54.55
2023-04-06T16:17:44.954Z,53.80
2023-04-06T16:22:48.349Z,54.00
2023-04-06T16:27:50.690Z,56.24
2023-04-06T16:32:53.617Z,54.98
2023-04-06T16:37:55.860Z,58.59
2023-04-06T16:42:58.067Z,60.33
2023-04-06T16:48:00.273Z,60.42
2023-04-06T16:53:02.748Z,59.18
2023-04-06T16:58:04.910Z,60.15
2023-04-06T17:03:07.260Z,57.36
2023-04-06T17:08:09.719Z,56.70
2023-04-06T17:13:11.948Z,55.82
2023-04-06T17:18:14.401Z,55.16
2023-04-06T17:23:17.081Z,55.26
2023-04-06T17:28:19.218Z,54.62
2023-04-06T17:33:22.521Z,55.34
2023-04-06T17:38:25.405Z,55.50
2023-04-06T17:43:27.819Z,55.55
2023-04-06T17:48:30.235Z,57.58
2023-04-06T17:53:34.774Z,56.97
2023-04-06T17:58:36.981Z,57.28
2023-04-06T18:03:39.516Z,55.94
2023-04-06T18:08:42.575Z,56.94
2023-04-06T18:13:45.668Z,57.53
2023-04-06T18:18:48.135Z,56.68
2023-04-06T18:23:50.326Z,57.19
2023-04-06T18:28:52.858Z,57.30
2023-04-06T18:33:55.338Z,57.04
2023-04-06T18:38:57.828Z,55.66
2023-04-06T18:44:00.240Z,55.43
2023-04-06T18:49:04.739Z,56.02
2023-04-06T18:54:06.872Z,55.81
2023-04-06T18:59:13.597Z,55.38
2023-04-06T19:04:16.410Z,55.31
2023-04-06T19:09:18.971Z,55.34
2023-04-06T19:14:21.113Z,55.56
2023-04-06T19:19:23.375Z,57.46
2023-04-06T19:24:26.399Z,57.42
2023-04-06T19:29:28.606Z,57.07
2023-04-06T19:34:30.891Z,56.64
2023-04-06T19:39:34.858Z,56.56
2023-04-06T19:44:37.203Z,56.87
2023-04-06T19:49:41.087Z,56.90
2023-04-06T19:54:43.300Z,58.24
2023-04-06T19:59:45.396Z,57.55
2023-04-06T20:04:47.547Z,57.41
2023-04-06T20:09:49.644Z,57.86
2023-04-06T20:14:51.852Z,58.04
2023-04-06T20:19:54.631Z,57.81
2023-04-06T20:24:56.830Z,56.64
2023-04-06T20:29:59.070Z,55.96
2023-04-06T20:35:01.352Z,56.10
2023-04-06T20:40:04.616Z,56.05
2023-04-06T20:45:07.289Z,55.66
2023-04-06T20:50:09.752Z,56.49
2023-04-06T20:55:11.996Z,56.20
2023-04-06T21:00:14.997Z,56.48
2023-04-06T21:05:17.334Z,56.78
2023-04-06T21:10:19.536Z,57.54
2023-04-06T21:15:21.858Z,57.84
2023-04-06T21:20:24.079Z,56.81
2023-04-06T21:25:26.250Z,56.95
2023-04-06T21:30:28.458Z,57.29
2023-04-06T21:35:30.588Z,57.86
2023-04-06T21:40:32.776Z,57.33
2023-04-06T21:45:35.125Z,59.61
2023-04-06T21:50:40.805Z,62.03
2023-04-06T21:55:47.215Z,59.54
2023-04-06T22:00:49.526Z,58.71
2023-04-06T22:05:51.726Z,58.25
2023-04-06T22:10:53.877Z,58.93
2023-04-06T22:15:56.483Z,58.68
2023-04-06T22:20:58.969Z,58.39
2023-04-06T22:26:01.236Z,58.45
2023-04-06T22:31:03.707Z,58.54
2023-04-06T22:36:06.257Z,59.10
2023-04-06T22:41:08.663Z,58.76
2023-04-06T22:46:11.071Z,57.91
2023-04-06T22:51:13.168Z,57.88
2023-04-06T22:56:15.249Z,57.65
2023-04-06T23:01:17.440Z,57.73
2023-04-06T23:06:19.816Z,57.70
2023-04-06T23:11:22.703Z,57.56
2023-04-06T23:16:24.998Z,56.95
2023-04-06T23:21:27.777Z,58.18
2023-04-06T23:26:30.035Z,57.34
2023-04-06T23:31:32.135Z,58.04
2023-04-06T23:36:34.782Z,57.47
2023-04-06T23:41:37.722Z,57.93
2023-04-06T23:46:39.881Z,57.67
2023-04-06T23:51:41.982Z,58.28
2023-04-06T23:56:44.079Z,57.87
